Terminal Aerodrome Forecast
Issued by NWS

Home | Current Version | Previous Version | Text Only | Print | Product List | Glossary On
Versions: 1 2 3 4 5 6 7 8 9 10 11 12 13 14 15 16 17
000
FTUS41 KBTV 301139
TAFMSS
TAF
KMSS 301139Z 3012/3112 23005KT P6SM BKN045
      TEMPO 3012/3015 SCT045
     FM301500 24009KT P6SM SCT045
     FM310000 22005KT P6SM SCT090=

USA.gov is the U.S. government's official web portal to all federal, state and local government web resources and services.